createdAt,value
2023-03-13T00:01:04.962Z,0
2023-03-13T00:02:04.989Z,0
2023-03-13T00:03:04.924Z,0
2023-03-13T00:04:04.949Z,0
2023-03-13T00:06:04.964Z,0
2023-03-13T00:07:05.015Z,0
2023-03-13T00:08:04.940Z,0
2023-03-13T00:09:04.933Z,0
2023-03-13T00:10:04.933Z,0
2023-03-13T00:11:04.933Z,0
2023-03-13T00:12:04.933Z,0
2023-03-13T00:13:04.941Z,0
2023-03-13T00:14:04.934Z,0
2023-03-13T00:15:04.927Z,0
2023-03-13T00:16:04.940Z,0
2023-03-13T00:17:05.051Z,0
2023-03-13T00:18:04.964Z,0
2023-03-13T00:19:04.950Z,0
2023-03-13T00:20:04.929Z,0
2023-03-13T00:21:04.944Z,0
2023-03-13T00:22:04.939Z,0
2023-03-13T00:23:04.928Z,0
2023-03-13T00:25:04.928Z,0
2023-03-13T00:26:04.949Z,15
2023-03-13T00:27:04.923Z,0
2023-03-13T00:28:11.881Z,12
2023-03-13T00:29:04.931Z,0
2023-03-13T00:30:04.933Z,0
2023-03-13T00:31:05.023Z,0
2023-03-13T00:33:04.938Z,0
2023-03-13T00:34:04.929Z,0
2023-03-13T00:35:04.930Z,0
2023-03-13T00:36:04.926Z,0
2023-03-13T00:37:04.933Z,0
2023-03-13T00:38:04.929Z,0
2023-03-13T00:39:04.928Z,0
2023-03-13T00:40:04.925Z,0
2023-03-13T00:41:04.936Z,0
2023-03-13T00:42:04.922Z,0
2023-03-13T00:43:04.944Z,0
2023-03-13T00:44:04.935Z,0
2023-03-13T00:46:04.985Z,0
2023-03-13T00:47:04.958Z,0
2023-03-13T00:48:04.949Z,0
2023-03-13T00:49:04.933Z,0
2023-03-13T00:50:04.940Z,0
2023-03-13T00:51:04.937Z,0
2023-03-13T00:52:04.928Z,0
2023-03-13T00:53:04.935Z,0
2023-03-13T00:54:04.981Z,0
2023-03-13T00:55:04.938Z,0
2023-03-13T00:56:04.926Z,4
2023-03-13T00:57:04.924Z,0
2023-03-13T00:58:04.964Z,0
2023-03-13T00:59:04.957Z,0
2023-03-13T01:00:04.938Z,0
2023-03-13T01:01:04.933Z,0
2023-03-13T01:02:04.986Z,0
2023-03-13T01:03:05.091Z,0
2023-03-13T01:04:04.963Z,0
2023-03-13T01:05:05.038Z,0
2023-03-13T01:07:04.947Z,0
2023-03-13T01:08:04.937Z,10
2023-03-13T01:09:04.943Z,0
2023-03-13T01:10:04.944Z,0
2023-03-13T01:11:04.939Z,0
2023-03-13T01:13:04.969Z,0
2023-03-13T01:14:04.947Z,8
2023-03-13T01:15:04.960Z,0
2023-03-13T01:16:04.994Z,6
2023-03-13T01:18:04.952Z,8
2023-03-13T01:19:04.941Z,7
2023-03-13T01:20:04.940Z,0
2023-03-13T01:21:04.944Z,9
2023-03-13T01:22:04.940Z,8
2023-03-13T01:23:04.940Z,9
2023-03-13T01:24:04.944Z,8
2023-03-13T01:26:04.936Z,7
2023-03-13T01:27:04.943Z,8
2023-03-13T01:29:04.953Z,9
2023-03-13T01:32:04.969Z,0
2023-03-13T01:34:04.961Z,0
2023-03-13T01:35:04.956Z,7
2023-03-13T01:36:04.964Z,0
2023-03-13T01:37:04.943Z,0
2023-03-13T01:38:04.943Z,0
2023-03-13T01:39:04.960Z,0
2023-03-13T01:40:04.947Z,21
2023-03-13T01:41:04.937Z,19
2023-03-13T01:42:04.952Z,20
2023-03-13T01:43:07.727Z,15
2023-03-13T01:44:04.994Z,11
2023-03-13T01:45:04.949Z,11
2023-03-13T01:47:04.943Z,16
2023-03-13T01:48:04.957Z,17
2023-03-13T01:49:04.955Z,24
2023-03-13T01:50:04.946Z,20
2023-03-13T01:51:04.964Z,27
2023-03-13T01:52:04.954Z,32
2023-03-13T01:53:04.950Z,31
2023-03-13T01:55:04.957Z,34
2023-03-13T01:56:04.952Z,13
2023-03-13T01:57:04.948Z,18
2023-03-13T01:58:04.961Z,16
2023-03-13T01:59:04.968Z,13
2023-03-13T02:00:04.949Z,19
2023-03-13T02:01:04.962Z,0
2023-03-13T02:02:05.020Z,16
2023-03-13T02:03:05.032Z,15
2023-03-13T02:04:04.948Z,0
2023-03-13T02:05:04.949Z,0
2023-03-13T02:06:04.958Z,0
2023-03-13T02:07:04.964Z,0
2023-03-13T02:08:05.376Z,0
2023-03-13T02:12:04.945Z,0
2023-03-13T02:13:04.948Z,22
2023-03-13T02:14:04.957Z,0
2023-03-13T02:15:04.973Z,0
2023-03-13T02:16:05.036Z,0
2023-03-13T02:18:04.978Z,0
2023-03-13T02:19:04.951Z,0
2023-03-13T02:20:04.948Z,0
2023-03-13T02:21:04.947Z,17
2023-03-13T02:22:04.954Z,0
2023-03-13T02:23:04.945Z,0
2023-03-13T02:24:04.948Z,18
2023-03-13T02:25:04.943Z,0
2023-03-13T02:26:04.946Z,0
2023-03-13T02:27:04.951Z,0
2023-03-13T02:28:04.957Z,15
2023-03-13T02:29:04.948Z,0
2023-03-13T02:31:04.967Z,0
2023-03-13T02:32:04.958Z,13
2023-03-13T02:33:04.952Z,13
2023-03-13T02:34:05.003Z,13
2023-03-13T02:35:04.954Z,12
2023-03-13T02:36:04.944Z,14
2023-03-13T02:37:05.012Z,0
2023-03-13T02:39:04.949Z,0
2023-03-13T02:40:04.954Z,0
2023-03-13T02:41:04.949Z,0
2023-03-13T02:42:04.958Z,0
2023-03-13T02:43:04.954Z,13
2023-03-13T02:44:04.994Z,17
2023-03-13T02:45:04.953Z,0
2023-03-13T02:46:04.947Z,16
2023-03-13T02:47:05.054Z,21
2023-03-13T02:49:04.963Z,0
2023-03-13T02:50:04.965Z,0
2023-03-13T02:52:04.964Z,0
2023-03-13T02:53:04.948Z,0
2023-03-13T02:54:04.960Z,0
2023-03-13T02:55:05.033Z,0
2023-03-13T02:56:04.958Z,0
2023-03-13T02:57:04.963Z,0
2023-03-13T02:58:04.957Z,0
2023-03-13T02:59:04.949Z,0
2023-03-13T03:00:04.961Z,0
2023-03-13T03:01:05.022Z,0
2023-03-13T03:02:04.979Z,0
2023-03-13T03:03:04.969Z,0
2023-03-13T03:04:05.065Z,0
2023-03-13T03:05:05.005Z,0
2023-03-13T03:06:04.962Z,0
2023-03-13T03:07:04.980Z,0
2023-03-13T03:08:04.994Z,0
2023-03-13T03:09:04.970Z,0
2023-03-13T03:11:04.980Z,0
2023-03-13T03:12:04.970Z,0
2023-03-13T03:13:04.960Z,0
2023-03-13T03:14:04.979Z,0
2023-03-13T03:15:04.999Z,0
2023-03-13T03:16:05.036Z,0
2023-03-13T03:17:04.963Z,0
2023-03-13T03:18:04.958Z,0
2023-03-13T03:19:04.987Z,0
2023-03-13T03:20:04.992Z,0
2023-03-13T03:21:04.961Z,0
2023-03-13T03:22:05.007Z,0
2023-03-13T03:23:04.957Z,0
2023-03-13T03:24:04.955Z,0
2023-03-13T03:25:04.952Z,0
2023-03-13T03:26:04.963Z,0
2023-03-13T03:27:04.992Z,0
2023-03-13T03:28:04.960Z,0
2023-03-13T03:29:04.957Z,0
2023-03-13T03:30:04.972Z,0
2023-03-13T03:32:05.073Z,0
2023-03-13T03:33:04.946Z,0
2023-03-13T03:34:04.965Z,0
2023-03-13T03:35:04.998Z,0
2023-03-13T03:36:05.075Z,0
2023-03-13T03:37:04.963Z,0
2023-03-13T03:38:04.963Z,0
2023-03-13T03:40:04.974Z,0
2023-03-13T03:41:04.949Z,0
2023-03-13T03:42:04.947Z,0
2023-03-13T03:43:04.952Z,0
2023-03-13T03:44:04.950Z,0
2023-03-13T03:45:04.952Z,0
2023-03-13T03:46:04.950Z,0
2023-03-13T03:47:05.014Z,0
2023-03-13T03:48:04.951Z,0
2023-03-13T03:49:04.962Z,0
2023-03-13T03:50:04.996Z,0
2023-03-13T03:51:04.959Z,0
2023-03-13T03:52:04.950Z,0
2023-03-13T03:53:04.955Z,0
2023-03-13T03:54:04.952Z,0
2023-03-13T03:55:04.951Z,0
2023-03-13T03:56:04.954Z,0
2023-03-13T03:57:04.978Z,0
2023-03-13T03:58:05.015Z,0
2023-03-13T03:59:04.954Z,15
2023-03-13T04:00:04.951Z,0
2023-03-13T04:01:04.972Z,0
2023-03-13T04:02:05.069Z,0
2023-03-13T04:03:04.980Z,0
2023-03-13T04:04:04.986Z,10
2023-03-13T04:05:04.965Z,0
2023-03-13T04:06:04.956Z,0
2023-03-13T04:07:05.014Z,0
2023-03-13T04:08:04.964Z,0
2023-03-13T04:09:04.972Z,0
2023-03-13T04:12:04.962Z,0
2023-03-13T04:13:04.964Z,0
2023-03-13T04:14:04.959Z,0
2023-03-13T04:15:04.966Z,0
2023-03-13T04:16:04.961Z,0
2023-03-13T04:17:05.034Z,0
2023-03-13T04:18:04.980Z,0
2023-03-13T04:19:04.969Z,0
2023-03-13T04:20:05.033Z,0
2023-03-13T04:21:04.985Z,0
2023-03-13T04:22:04.966Z,12
2023-03-13T04:23:04.975Z,0
2023-03-13T04:25:05.002Z,0
2023-03-13T04:26:05.006Z,0
2023-03-13T04:27:04.968Z,12
2023-03-13T04:28:04.974Z,0
2023-03-13T04:29:04.965Z,0
2023-03-13T04:30:05.042Z,12
2023-03-13T04:31:05.042Z,10
2023-03-13T04:33:05.024Z,0
2023-03-13T04:35:05.030Z,0
2023-03-13T04:36:05.006Z,0
2023-03-13T04:37:04.963Z,0
2023-03-13T04:38:04.991Z,0
2023-03-13T04:39:04.973Z,0
2023-03-13T04:40:04.971Z,0
2023-03-13T04:41:04.963Z,0
2023-03-13T04:42:04.987Z,14
2023-03-13T04:43:04.974Z,0
2023-03-13T04:44:04.976Z,0
2023-03-13T04:45:04.960Z,0
2023-03-13T04:46:05.022Z,0
2023-03-13T04:47:04.972Z,12
2023-03-13T04:48:04.962Z,0
2023-03-13T04:49:06.519Z,0
2023-03-13T04:50:05.000Z,0
2023-03-13T04:51:04.988Z,0
2023-03-13T04:52:05.090Z,0
2023-03-13T04:54:04.986Z,0
2023-03-13T04:55:04.970Z,0
2023-03-13T04:56:04.974Z,0
2023-03-13T04:57:04.964Z,0
2023-03-13T04:58:04.972Z,0
2023-03-13T04:59:04.960Z,0
2023-03-13T05:00:05.001Z,0
2023-03-13T05:01:04.999Z,0
2023-03-13T05:02:04.964Z,0
2023-03-13T05:03:04.971Z,7
2023-03-13T05:04:04.968Z,10
2023-03-13T05:05:05.061Z,0
2023-03-13T05:07:04.957Z,0
2023-03-13T05:08:04.958Z,0
2023-03-13T05:09:05.017Z,0
2023-03-13T05:10:04.974Z,0
2023-03-13T05:11:04.987Z,0
2023-03-13T05:12:04.969Z,0
2023-03-13T05:13:04.993Z,0
2023-03-13T05:15:04.968Z,0
2023-03-13T05:16:05.001Z,0
2023-03-13T05:17:04.962Z,0
2023-03-13T05:18:04.962Z,0
2023-03-13T05:19:04.966Z,0
2023-03-13T05:20:04.964Z,0
2023-03-13T05:21:04.961Z,0
2023-03-13T05:22:04.958Z,0
2023-03-13T05:23:04.968Z,10
2023-03-13T05:24:04.959Z,0
2023-03-13T05:25:04.964Z,0
2023-03-13T05:26:04.993Z,0
2023-03-13T05:28:04.992Z,0
2023-03-13T05:29:04.969Z,0
2023-03-13T05:30:04.967Z,0
2023-03-13T05:31:05.005Z,0
2023-03-13T05:32:04.992Z,0
2023-03-13T05:33:05.002Z,0
2023-03-13T05:34:04.966Z,0
2023-03-13T05:36:04.989Z,0
2023-03-13T05:37:04.974Z,0
2023-03-13T05:38:05.012Z,0
2023-03-13T05:39:04.967Z,0
2023-03-13T05:40:04.986Z,0
2023-03-13T05:41:04.964Z,0
2023-03-13T05:43:04.976Z,0
2023-03-13T05:44:04.965Z,0
2023-03-13T05:45:04.958Z,0
2023-03-13T05:46:05.037Z,0
2023-03-13T05:47:04.973Z,0
2023-03-13T05:49:04.969Z,0
2023-03-13T05:50:04.983Z,0
2023-03-13T05:51:04.962Z,0
2023-03-13T05:52:04.970Z,0
2023-03-13T05:53:04.978Z,0
2023-03-13T05:54:04.966Z,0
2023-03-13T05:55:04.966Z,0
2023-03-13T05:56:05.022Z,0
2023-03-13T05:57:04.971Z,0
2023-03-13T05:58:04.973Z,0
2023-03-13T05:59:04.977Z,0
2023-03-13T06:00:04.980Z,0
2023-03-13T06:01:04.973Z,0
2023-03-13T06:02:04.966Z,0
2023-03-13T06:03:04.960Z,0
2023-03-13T06:04:05.106Z,0
2023-03-13T06:05:04.983Z,0
2023-03-13T06:06:04.965Z,0
2023-03-13T06:07:04.966Z,0
2023-03-13T06:08:04.954Z,0
2023-03-13T06:09:04.968Z,0
2023-03-13T06:10:04.972Z,0
2023-03-13T06:11:04.991Z,0
2023-03-13T06:12:04.997Z,0
2023-03-13T06:13:18.672Z,0
2023-03-13T06:14:04.961Z,0
2023-03-13T06:15:04.984Z,0
2023-03-13T06:16:04.998Z,0
2023-03-13T06:17:04.966Z,0
2023-03-13T06:18:04.970Z,0
2023-03-13T06:19:04.981Z,0
2023-03-13T06:20:04.969Z,0
2023-03-13T06:21:04.960Z,0
2023-03-13T06:22:04.959Z,0
2023-03-13T06:23:04.961Z,0
2023-03-13T06:24:04.958Z,0
2023-03-13T06:26:04.968Z,0
2023-03-13T06:27:04.964Z,0
2023-03-13T06:28:04.962Z,0
2023-03-13T06:29:05.029Z,0
2023-03-13T06:30:04.965Z,0
2023-03-13T06:31:05.031Z,0
2023-03-13T06:32:05.070Z,0
2023-03-13T06:34:04.968Z,0
2023-03-13T06:35:04.984Z,0
2023-03-13T06:36:05.008Z,0
2023-03-13T06:37:04.980Z,0
2023-03-13T06:38:04.970Z,0
2023-03-13T06:39:04.974Z,0
2023-03-13T06:40:04.965Z,0
2023-03-13T06:41:04.976Z,0
2023-03-13T06:42:05.030Z,0
2023-03-13T06:43:04.982Z,0
2023-03-13T06:44:04.975Z,0
2023-03-13T06:45:05.054Z,0
2023-03-13T06:47:05.061Z,0
2023-03-13T06:48:04.967Z,0
2023-03-13T06:49:04.966Z,0
2023-03-13T06:50:04.970Z,0
2023-03-13T06:51:04.964Z,0
2023-03-13T06:52:04.969Z,0
2023-03-13T06:53:04.970Z,0
2023-03-13T06:55:04.962Z,0
2023-03-13T06:56:04.989Z,0
2023-03-13T06:57:04.970Z,0
2023-03-13T06:58:04.968Z,0
2023-03-13T06:59:04.968Z,0
2023-03-13T07:00:05.140Z,0
2023-03-13T07:01:05.078Z,0
2023-03-13T07:02:04.991Z,0
2023-03-13T07:03:04.967Z,0
2023-03-13T07:04:05.044Z,8
2023-03-13T07:05:04.973Z,0
2023-03-13T07:06:04.963Z,0
2023-03-13T07:07:04.971Z,0
2023-03-13T07:08:04.967Z,0
2023-03-13T07:09:04.967Z,0
2023-03-13T07:10:04.973Z,0
2023-03-13T07:11:04.983Z,0
2023-03-13T07:12:04.985Z,0
2023-03-13T07:13:04.990Z,0
2023-03-13T07:14:15.679Z,0
2023-03-13T07:16:05.130Z,0
2023-03-13T07:18:04.992Z,0
2023-03-13T07:19:04.972Z,0
2023-03-13T07:20:05.077Z,0
2023-03-13T07:21:04.983Z,0
2023-03-13T07:22:04.976Z,12
2023-03-13T07:23:04.978Z,0
2023-03-13T07:24:04.972Z,0
2023-03-13T07:25:04.972Z,0
2023-03-13T07:26:05.035Z,0
2023-03-13T07:27:08.023Z,0
2023-03-13T07:29:04.977Z,0
2023-03-13T07:30:05.000Z,0
2023-03-13T07:31:04.971Z,0
2023-03-13T07:32:05.113Z,0
2023-03-13T07:33:05.079Z,0
2023-03-13T07:34:04.982Z,0
2023-03-13T07:35:04.975Z,0
2023-03-13T07:36:05.052Z,0
2023-03-13T07:37:05.021Z,0
2023-03-13T07:38:04.979Z,0
2023-03-13T07:39:04.991Z,0
2023-03-13T07:40:04.992Z,0
2023-03-13T07:41:04.979Z,0
2023-03-13T07:42:05.005Z,0
2023-03-13T07:43:04.989Z,0
2023-03-13T07:44:05.015Z,0
2023-03-13T07:45:04.980Z,0
2023-03-13T07:46:05.724Z,0
2023-03-13T07:47:04.971Z,0
2023-03-13T07:48:05.454Z,0
2023-03-13T07:50:05.440Z,0
2023-03-13T07:51:05.601Z,0
2023-03-13T07:52:04.978Z,0
2023-03-13T07:53:06.977Z,0
2023-03-13T07:54:04.983Z,0
2023-03-13T07:55:05.447Z,0
2023-03-13T07:56:05.488Z,0
2023-03-13T07:57:05.470Z,0
2023-03-13T07:58:05.492Z,0
2023-03-13T07:59:05.443Z,0
2023-03-13T08:00:05.502Z,0
2023-03-13T08:01:04.985Z,0
2023-03-13T08:02:05.371Z,0
2023-03-13T08:03:05.414Z,0
2023-03-13T08:04:05.614Z,0
2023-03-13T08:05:05.390Z,0
2023-03-13T08:06:04.986Z,0
2023-03-13T08:07:05.418Z,0
2023-03-13T08:08:05.299Z,0
2023-03-13T08:09:04.985Z,0
2023-03-13T08:10:04.980Z,0
2023-03-13T08:11:05.131Z,0
2023-03-13T08:12:05.300Z,0
2023-03-13T08:13:05.008Z,0
2023-03-13T08:14:04.987Z,0
2023-03-13T08:15:05.051Z,0
2023-03-13T08:16:05.359Z,0
2023-03-13T08:17:05.026Z,0
2023-03-13T08:18:04.971Z,0
2023-03-13T08:19:05.027Z,0
2023-03-13T08:20:04.983Z,0
2023-03-13T08:21:04.989Z,0
2023-03-13T08:23:04.979Z,6
2023-03-13T08:24:04.984Z,0
2023-03-13T08:25:04.973Z,0
2023-03-13T08:26:04.972Z,0
2023-03-13T08:27:04.984Z,0
2023-03-13T08:28:04.976Z,0
2023-03-13T08:29:04.983Z,0
2023-03-13T08:30:04.973Z,0
2023-03-13T08:31:04.993Z,0
2023-03-13T08:32:04.976Z,0
2023-03-13T08:33:07.522Z,8
2023-03-13T08:34:05.104Z,6
2023-03-13T08:35:04.996Z,0
2023-03-13T08:37:04.978Z,0
2023-03-13T08:38:04.977Z,0
2023-03-13T08:39:05.027Z,0
2023-03-13T08:40:05.002Z,0
2023-03-13T08:41:04.987Z,0
2023-03-13T08:42:04.975Z,0
2023-03-13T08:43:04.992Z,0
2023-03-13T08:44:04.968Z,0
2023-03-13T08:46:05.055Z,10
2023-03-13T08:48:04.995Z,0
2023-03-13T08:50:04.976Z,0
2023-03-13T08:51:04.984Z,0
2023-03-13T08:52:04.991Z,0
2023-03-13T08:53:05.002Z,8
2023-03-13T08:54:05.003Z,0
2023-03-13T08:56:04.994Z,0
2023-03-13T08:57:05.034Z,8
2023-03-13T08:58:05.037Z,0
2023-03-13T08:59:05.022Z,0
2023-03-13T09:00:05.006Z,0
2023-03-13T09:01:05.028Z,8
2023-03-13T09:02:05.089Z,6
2023-03-13T09:03:05.016Z,0
2023-03-13T09:04:05.198Z,0
2023-03-13T09:05:04.983Z,0
2023-03-13T09:06:04.994Z,10
2023-03-13T09:07:05.026Z,0
2023-03-13T09:09:04.982Z,0
2023-03-13T09:10:05.038Z,0
2023-03-13T09:11:04.993Z,0
2023-03-13T09:12:04.988Z,0
2023-03-13T09:13:04.983Z,0
2023-03-13T09:14:05.033Z,11
2023-03-13T09:15:05.139Z,11
2023-03-13T09:17:05.039Z,0
2023-03-13T09:18:05.068Z,13
2023-03-13T09:19:04.995Z,14
2023-03-13T09:20:04.994Z,8
2023-03-13T09:21:04.994Z,7
2023-03-13T09:22:05.005Z,5
2023-03-13T09:23:05.012Z,6
2023-03-13T09:25:04.997Z,7
2023-03-13T09:26:04.998Z,8
2023-03-13T09:27:05.064Z,10
2023-03-13T09:28:04.985Z,9
2023-03-13T09:29:04.991Z,16
2023-03-13T09:30:04.999Z,22
2023-03-13T09:32:05.007Z,14
2023-03-13T09:33:05.088Z,13
2023-03-13T09:34:05.013Z,12
2023-03-13T09:35:04.986Z,0
2023-03-13T09:36:05.077Z,12
2023-03-13T09:37:04.989Z,10
2023-03-13T09:38:05.004Z,10
2023-03-13T09:40:05.016Z,0
2023-03-13T09:41:06.441Z,5
2023-03-13T09:42:06.831Z,10
2023-03-13T09:43:04.991Z,11
2023-03-13T09:44:05.014Z,0
2023-03-13T09:45:05.011Z,0
2023-03-13T09:46:05.022Z,12
2023-03-13T09:47:04.991Z,0
2023-03-13T09:48:05.113Z,0
2023-03-13T09:50:04.989Z,6
2023-03-13T09:51:05.000Z,7
2023-03-13T09:52:04.989Z,17
2023-03-13T09:53:05.038Z,0
2023-03-13T09:54:05.010Z,0
2023-03-13T09:55:05.012Z,0
2023-03-13T09:56:04.987Z,0
2023-03-13T09:57:04.995Z,6
2023-03-13T09:58:05.035Z,0
2023-03-13T09:59:04.986Z,0
2023-03-13T10:00:04.997Z,0
2023-03-13T10:01:04.991Z,0
2023-03-13T10:02:05.114Z,3
2023-03-13T10:03:04.990Z,4
2023-03-13T10:04:05.045Z,11
2023-03-13T10:05:04.990Z,0
2023-03-13T10:06:04.986Z,0
2023-03-13T10:07:04.988Z,0
2023-03-13T10:08:04.986Z,0
2023-03-13T10:09:04.983Z,0
2023-03-13T10:10:07.521Z,0
2023-03-13T10:12:04.990Z,0
2023-03-13T10:13:04.988Z,0
2023-03-13T10:14:04.993Z,0
2023-03-13T10:15:04.998Z,0
2023-03-13T10:16:05.043Z,0
2023-03-13T10:17:04.988Z,30
2023-03-13T10:18:04.988Z,4
2023-03-13T10:19:05.066Z,0
2023-03-13T10:20:04.986Z,0
2023-03-13T10:21:04.991Z,0
2023-03-13T10:22:04.990Z,0
2023-03-13T10:23:04.996Z,0
2023-03-13T10:24:04.987Z,0
2023-03-13T10:25:05.011Z,0
2023-03-13T10:26:05.068Z,4
2023-03-13T10:27:04.992Z,0
2023-03-13T10:28:04.994Z,0
2023-03-13T10:29:05.013Z,0
2023-03-13T10:30:05.003Z,0
2023-03-13T10:31:05.013Z,0
2023-03-13T10:33:05.001Z,0
2023-03-13T10:34:04.995Z,0
2023-03-13T10:35:04.995Z,0
2023-03-13T10:36:05.172Z,0
2023-03-13T10:37:05.001Z,0
2023-03-13T10:38:04.992Z,0
2023-03-13T10:39:05.001Z,0
2023-03-13T10:40:04.988Z,0
2023-03-13T10:41:04.998Z,0
2023-03-13T10:42:05.044Z,0
2023-03-13T10:43:04.991Z,0
2023-03-13T10:44:04.991Z,0
2023-03-13T10:45:05.066Z,0
2023-03-13T10:46:05.005Z,0
2023-03-13T10:47:05.188Z,0
2023-03-13T10:48:04.989Z,0
2023-03-13T10:49:05.009Z,0
2023-03-13T10:50:05.020Z,0
2023-03-13T10:51:04.998Z,0
2023-03-13T10:52:05.025Z,0
2023-03-13T10:54:04.998Z,0
2023-03-13T10:55:04.982Z,0
2023-03-13T10:56:04.990Z,0
2023-03-13T10:57:05.004Z,0
2023-03-13T10:58:04.996Z,0
2023-03-13T10:59:05.031Z,0
2023-03-13T11:00:04.991Z,0
2023-03-13T11:01:05.016Z,0
2023-03-13T11:02:04.991Z,0
2023-03-13T11:03:05.158Z,0
2023-03-13T11:05:04.994Z,0
2023-03-13T11:06:05.041Z,0
2023-03-13T11:07:05.012Z,0
2023-03-13T11:08:05.019Z,0
2023-03-13T11:09:05.008Z,0
2023-03-13T11:10:04.997Z,0
2023-03-13T11:11:05.005Z,0
2023-03-13T11:13:04.998Z,0
2023-03-13T11:14:04.995Z,0
2023-03-13T11:15:05.097Z,0
2023-03-13T11:16:05.022Z,3
2023-03-13T11:17:05.000Z,4
2023-03-13T11:18:04.994Z,7
2023-03-13T11:19:05.006Z,5
2023-03-13T11:20:05.004Z,6
2023-03-13T11:21:17.229Z,0
2023-03-13T11:22:05.070Z,0
2023-03-13T11:23:05.006Z,0
2023-03-13T11:24:05.007Z,0
2023-03-13T11:25:05.002Z,8
2023-03-13T11:26:05.001Z,12
2023-03-13T11:27:05.570Z,0
2023-03-13T11:28:05.052Z,0
2023-03-13T11:29:05.015Z,0
2023-03-13T11:30:05.073Z,0
2023-03-13T11:31:05.006Z,0
2023-03-13T11:32:07.459Z,0
2023-03-13T11:34:04.996Z,0
2023-03-13T11:35:05.006Z,0
2023-03-13T11:36:05.120Z,0
2023-03-13T11:37:05.003Z,0
2023-03-13T11:38:06.456Z,0
2023-03-13T11:39:05.023Z,0
2023-03-13T11:40:05.026Z,0
2023-03-13T11:41:05.072Z,0
2023-03-13T11:42:05.006Z,0
2023-03-13T11:43:21.787Z,0
2023-03-13T11:44:05.005Z,0
2023-03-13T11:45:05.005Z,0
2023-03-13T11:47:05.055Z,0
2023-03-13T11:48:05.008Z,0
2023-03-13T11:49:05.016Z,0
2023-03-13T11:50:05.022Z,0
2023-03-13T11:51:05.061Z,0
2023-03-13T11:52:05.050Z,0
2023-03-13T11:53:05.076Z,0
2023-03-13T11:55:05.149Z,0
2023-03-13T11:56:05.010Z,0
2023-03-13T11:57:05.024Z,0
2023-03-13T11:58:05.007Z,0
2023-03-13T11:59:05.007Z,0
2023-03-13T12:00:05.035Z,0
2023-03-13T12:01:05.067Z,0
2023-03-13T12:02:05.061Z,0
2023-03-13T12:03:05.023Z,0
2023-03-13T12:04:05.000Z,0
2023-03-13T12:05:05.072Z,0
2023-03-13T12:06:05.719Z,0
2023-03-13T12:07:05.085Z,0
2023-03-13T12:08:05.017Z,0
2023-03-13T12:09:05.007Z,0
2023-03-13T12:10:05.007Z,0
2023-03-13T12:11:05.015Z,0
2023-03-13T12:12:05.032Z,0
2023-03-13T12:13:05.014Z,0
2023-03-13T12:14:05.005Z,0
2023-03-13T12:15:05.020Z,0
2023-03-13T12:16:05.040Z,0
2023-03-13T12:17:05.001Z,0
2023-03-13T12:18:05.014Z,0
2023-03-13T12:19:05.015Z,0
2023-03-13T12:20:05.028Z,0
2023-03-13T12:21:05.026Z,0
2023-03-13T12:22:05.136Z,0
2023-03-13T12:23:05.030Z,0
2023-03-13T12:24:05.182Z,0
2023-03-13T12:25:06.520Z,0
2023-03-13T12:26:05.034Z,0
2023-03-13T12:27:05.019Z,0
2023-03-13T12:28:05.090Z,0
2023-03-13T12:29:05.036Z,0
2023-03-13T12:30:05.017Z,0
2023-03-13T12:31:05.035Z,0
2023-03-13T12:32:05.011Z,0
2023-03-13T12:33:05.058Z,0
2023-03-13T12:34:05.013Z,0
2023-03-13T12:35:05.021Z,0
2023-03-13T12:36:05.053Z,0
2023-03-13T12:37:05.017Z,0
2023-03-13T12:39:05.160Z,0
2023-03-13T12:40:05.020Z,0
2023-03-13T12:41:05.069Z,0
2023-03-13T12:42:05.010Z,0
2023-03-13T12:43:05.024Z,0
2023-03-13T12:44:09.133Z,0
2023-03-13T12:45:05.042Z,0
2023-03-13T12:46:05.191Z,0
2023-03-13T12:47:05.015Z,0
2023-03-13T12:48:05.059Z,0
2023-03-13T12:49:05.047Z,0
2023-03-13T12:50:05.034Z,0
2023-03-13T12:51:05.029Z,0
2023-03-13T12:52:05.036Z,0
2023-03-13T12:53:05.028Z,0
2023-03-13T12:54:05.123Z,0
2023-03-13T12:55:05.036Z,0
2023-03-13T12:56:05.053Z,0
2023-03-13T12:57:05.025Z,0
2023-03-13T12:58:05.023Z,0
2023-03-13T12:59:05.040Z,0
2023-03-13T13:00:05.027Z,0
2023-03-13T13:01:05.057Z,0
2023-03-13T13:02:05.023Z,0
2023-03-13T13:03:05.073Z,0
2023-03-13T13:04:05.146Z,0
2023-03-13T13:05:05.018Z,0
2023-03-13T13:06:05.025Z,0
2023-03-13T13:07:05.021Z,0
2023-03-13T13:08:05.028Z,0
2023-03-13T13:09:05.023Z,0
2023-03-13T13:10:05.016Z,0
2023-03-13T13:11:05.023Z,0
2023-03-13T13:13:05.018Z,0
2023-03-13T13:14:05.021Z,0
2023-03-13T13:15:05.026Z,0
2023-03-13T13:16:05.157Z,0
2023-03-13T13:17:05.027Z,0
2023-03-13T13:18:05.039Z,0
2023-03-13T13:19:05.027Z,0
2023-03-13T13:20:05.037Z,0
2023-03-13T13:21:05.023Z,0
2023-03-13T13:22:05.086Z,0
2023-03-13T13:23:05.038Z,0
2023-03-13T13:24:05.021Z,0
2023-03-13T13:25:05.061Z,0
2023-03-13T13:27:05.026Z,0
2023-03-13T13:28:05.016Z,0
2023-03-13T13:29:05.024Z,0
2023-03-13T13:30:05.026Z,0
2023-03-13T13:31:05.203Z,0
2023-03-13T13:32:05.189Z,0
2023-03-13T13:33:05.103Z,0
2023-03-13T13:35:05.026Z,0
2023-03-13T13:36:05.120Z,0
2023-03-13T13:37:05.024Z,0
2023-03-13T13:38:05.028Z,0
2023-03-13T13:39:05.022Z,0
2023-03-13T13:40:05.126Z,0
2023-03-13T13:41:05.033Z,0
2023-03-13T13:42:05.050Z,0
2023-03-13T13:43:05.031Z,0
2023-03-13T13:44:05.034Z,0
2023-03-13T13:45:05.034Z,0
2023-03-13T13:46:05.074Z,0
2023-03-13T13:48:05.018Z,0
2023-03-13T13:49:05.150Z,0
2023-03-13T13:50:05.028Z,0
2023-03-13T13:51:05.063Z,0
2023-03-13T13:52:05.023Z,0
2023-03-13T13:53:05.031Z,0
2023-03-13T13:54:05.022Z,0
2023-03-13T13:56:05.102Z,0
2023-03-13T13:57:05.104Z,0
2023-03-13T13:58:05.081Z,0
2023-03-13T13:59:05.028Z,0
2023-03-13T14:00:05.023Z,0
2023-03-13T14:01:05.042Z,0
2023-03-13T14:02:05.068Z,0
2023-03-13T14:03:05.029Z,0
2023-03-13T14:04:05.027Z,0
2023-03-13T14:05:05.070Z,0
2023-03-13T14:06:05.091Z,0
2023-03-13T14:07:05.045Z,0
2023-03-13T14:09:05.021Z,0
2023-03-13T14:10:05.041Z,0
2023-03-13T14:11:05.093Z,0
2023-03-13T14:12:05.032Z,0
2023-03-13T14:13:05.055Z,0
2023-03-13T14:14:05.032Z,0
2023-03-13T14:15:05.127Z,0
2023-03-13T14:17:05.031Z,0
2023-03-13T14:18:05.029Z,0
2023-03-13T14:19:05.042Z,0
2023-03-13T14:20:05.039Z,0
2023-03-13T14:21:05.034Z,0
2023-03-13T14:22:05.045Z,0
2023-03-13T14:23:05.032Z,0
2023-03-13T14:24:05.045Z,0
2023-03-13T14:25:05.087Z,0
2023-03-13T14:26:05.047Z,0
2023-03-13T14:27:05.063Z,0
2023-03-13T14:28:05.044Z,0
2023-03-13T14:30:05.032Z,0
2023-03-13T14:31:05.081Z,0
2023-03-13T14:32:05.171Z,0
2023-03-13T14:33:05.137Z,0
2023-03-13T14:34:05.039Z,0
2023-03-13T14:35:05.057Z,0
2023-03-13T14:36:05.094Z,0
2023-03-13T14:38:05.048Z,0
2023-03-13T14:39:05.046Z,0
2023-03-13T14:40:05.037Z,0
2023-03-13T14:41:05.050Z,0
2023-03-13T14:42:05.051Z,0
2023-03-13T14:43:05.046Z,0
2023-03-13T14:44:05.088Z,0
2023-03-13T14:45:05.041Z,0
2023-03-13T14:46:05.052Z,0
2023-03-13T14:47:05.172Z,0
2023-03-13T14:48:05.087Z,0
2023-03-13T14:49:05.146Z,0
2023-03-13T14:51:15.352Z,0
2023-03-13T14:52:05.094Z,0
2023-03-13T14:53:05.044Z,0
2023-03-13T14:54:05.032Z,0
2023-03-13T14:55:05.057Z,0
2023-03-13T14:56:05.041Z,0
2023-03-13T14:57:05.034Z,0
2023-03-13T14:58:05.087Z,0
2023-03-13T14:59:05.107Z,0
2023-03-13T15:00:05.053Z,0
2023-03-13T15:01:05.082Z,44
2023-03-13T15:02:05.032Z,0
2023-03-13T15:03:05.058Z,0
2023-03-13T15:04:05.133Z,0
2023-03-13T15:05:05.067Z,0
2023-03-13T15:06:05.051Z,0
2023-03-13T15:07:05.048Z,45
2023-03-13T15:08:05.070Z,37
2023-03-13T15:09:05.135Z,0
2023-03-13T15:10:05.043Z,0
2023-03-13T15:12:05.051Z,0
2023-03-13T15:13:05.090Z,0
2023-03-13T15:14:05.079Z,0
2023-03-13T15:15:05.068Z,0
2023-03-13T15:16:05.093Z,0
2023-03-13T15:17:05.033Z,0
2023-03-13T15:18:05.048Z,0
2023-03-13T15:20:05.052Z,0
2023-03-13T15:21:05.055Z,0
2023-03-13T15:22:05.046Z,0
2023-03-13T15:23:05.043Z,0
2023-03-13T15:24:05.053Z,0
2023-03-13T15:25:06.954Z,0
2023-03-13T15:26:05.051Z,0
2023-03-13T15:27:05.039Z,0
2023-03-13T15:28:05.049Z,0
2023-03-13T15:29:05.073Z,0
2023-03-13T15:30:05.057Z,0
2023-03-13T15:31:05.055Z,0
2023-03-13T15:33:05.207Z,0
2023-03-13T15:34:05.050Z,60
2023-03-13T15:35:05.046Z,0
2023-03-13T15:36:05.113Z,0
2023-03-13T15:37:05.050Z,47
2023-03-13T15:38:05.045Z,56
2023-03-13T15:39:05.051Z,0
2023-03-13T15:40:05.044Z,0
2023-03-13T15:41:05.044Z,0
2023-03-13T15:42:05.049Z,0
2023-03-13T15:43:05.078Z,0
2023-03-13T15:44:05.051Z,0
2023-03-13T15:45:05.048Z,0
2023-03-13T15:46:05.807Z,0
2023-03-13T15:47:05.044Z,0
2023-03-13T15:48:05.051Z,0
2023-03-13T15:49:05.049Z,0
2023-03-13T15:50:05.062Z,0
2023-03-13T15:52:05.055Z,0
2023-03-13T15:53:05.057Z,0
2023-03-13T15:54:05.065Z,0
2023-03-13T15:55:05.091Z,58
2023-03-13T15:56:05.208Z,61
2023-03-13T15:57:05.065Z,0
2023-03-13T15:58:05.152Z,57
2023-03-13T15:59:05.062Z,54
2023-03-13T16:00:05.232Z,57
2023-03-13T16:01:05.075Z,68
2023-03-13T16:02:05.070Z,78
2023-03-13T16:03:05.047Z,76
2023-03-13T16:04:05.078Z,65
2023-03-13T16:05:05.077Z,61